sensor_id;sensor_type;location;lat;lon;timestamp;P1;durP1;ratioP1;P2;durP2;ratioP2
6113;SDS011;3087;48.392;10.836;2022-07-23T00:00:58;6.82;;;6.15;;
6113;SDS011;3087;48.392;10.836;2022-07-23T00:03:24;7.13;;;6.50;;
6113;SDS011;3087;48.392;10.836;2022-07-23T00:05:51;7.47;;;6.43;;
6113;SDS011;3087;48.392;10.836;2022-07-23T00:08:17;7.70;;;6.40;;
6113;SDS011;3087;48.392;10.836;2022-07-23T00:10:43;7.13;;;6.18;;
6113;SDS011;3087;48.392;10.836;2022-07-23T00:13:08;6.70;;;6.10;;
6113;SDS011;3087;48.392;10.836;2022-07-23T00:15:34;7.60;;;6.80;;
6113;SDS011;3087;48.392;10.836;2022-07-23T00:18:00;8.48;;;6.90;;
6113;SDS011;3087;48.392;10.836;2022-07-23T00:20:25;12.55;;;6.60;;
6113;SDS011;3087;48.392;10.836;2022-07-23T00:22:52;7.25;;;6.28;;
6113;SDS011;3087;48.392;10.836;2022-07-23T00:25:19;9.23;;;6.10;;
6113;SDS011;3087;48.392;10.836;2022-07-23T00:27:46;8.70;;;6.43;;
6113;SDS011;3087;48.392;10.836;2022-07-23T00:30:12;7.05;;;5.70;;
6113;SDS011;3087;48.392;10.836;2022-07-23T00:32:45;6.78;;;5.97;;
6113;SDS011;3087;48.392;10.836;2022-07-23T00:35:20;7.03;;;5.15;;
6113;SDS011;3087;48.392;10.836;2022-07-23T00:37:47;6.38;;;5.38;;
6113;SDS011;3087;48.392;10.836;2022-07-23T00:40:12;6.10;;;5.50;;
6113;SDS011;3087;48.392;10.836;2022-07-23T00:42:38;6.38;;;5.78;;
6113;SDS011;3087;48.392;10.836;2022-07-23T00:45:04;7.07;;;5.97;;
6113;SDS011;3087;48.392;10.836;2022-07-23T00:47:30;7.30;;;5.90;;
6113;SDS011;3087;48.392;10.836;2022-07-23T00:49:56;8.18;;;5.60;;
6113;SDS011;3087;48.392;10.836;2022-07-23T00:52:22;6.97;;;5.53;;
6113;SDS011;3087;48.392;10.836;2022-07-23T00:54:48;6.07;;;4.97;;
6113;SDS011;3087;48.392;10.836;2022-07-23T00:57:14;6.30;;;4.88;;
6113;SDS011;3087;48.392;10.836;2022-07-23T00:59:40;4.93;;;4.53;;
6113;SDS011;3087;48.392;10.836;2022-07-23T01:02:06;6.22;;;4.63;;
6113;SDS011;3087;48.392;10.836;2022-07-23T01:04:31;5.20;;;4.60;;
6113;SDS011;3087;48.392;10.836;2022-07-23T01:06:57;7.07;;;5.60;;
6113;SDS011;3087;48.392;10.836;2022-07-23T01:09:23;7.05;;;5.07;;
6113;SDS011;3087;48.392;10.836;2022-07-23T01:11:49;6.00;;;5.40;;
6113;SDS011;3087;48.392;10.836;2022-07-23T01:14:17;6.57;;;5.82;;
6113;SDS011;3087;48.392;10.836;2022-07-23T01:16:44;7.13;;;5.82;;
6113;SDS011;3087;48.392;10.836;2022-07-23T01:19:11;6.50;;;5.88;;
6113;SDS011;3087;48.392;10.836;2022-07-23T01:21:38;10.02;;;7.13;;
6113;SDS011;3087;48.392;10.836;2022-07-23T01:24:05;9.35;;;6.60;;
6113;SDS011;3087;48.392;10.836;2022-07-23T01:26:32;7.93;;;6.07;;
6113;SDS011;3087;48.392;10.836;2022-07-23T01:28:57;7.05;;;6.45;;
6113;SDS011;3087;48.392;10.836;2022-07-23T01:31:23;7.95;;;7.15;;
6113;SDS011;3087;48.392;10.836;2022-07-23T01:33:49;9.38;;;7.68;;
6113;SDS011;3087;48.392;10.836;2022-07-23T01:36:14;8.18;;;7.38;;
6113;SDS011;3087;48.392;10.836;2022-07-23T01:38:40;9.40;;;7.78;;
6113;SDS011;3087;48.392;10.836;2022-07-23T01:41:06;12.20;;;8.57;;
6113;SDS011;3087;48.392;10.836;2022-07-23T01:43:31;9.90;;;8.82;;
6113;SDS011;3087;48.392;10.836;2022-07-23T01:45:57;10.07;;;8.85;;
6113;SDS011;3087;48.392;10.836;2022-07-23T01:48:22;10.35;;;9.30;;
6113;SDS011;3087;48.392;10.836;2022-07-23T01:50:48;11.43;;;9.30;;
6113;SDS011;3087;48.392;10.836;2022-07-23T01:53:14;9.55;;;8.55;;
6113;SDS011;3087;48.392;10.836;2022-07-23T01:55:40;11.73;;;9.10;;
6113;SDS011;3087;48.392;10.836;2022-07-23T01:58:07;10.48;;;9.13;;
6113;SDS011;3087;48.392;10.836;2022-07-23T02:00:32;10.18;;;9.15;;
6113;SDS011;3087;48.392;10.836;2022-07-23T02:02:59;10.48;;;7.75;;
6113;SDS011;3087;48.392;10.836;2022-07-23T02:05:25;13.13;;;9.25;;
6113;SDS011;3087;48.392;10.836;2022-07-23T02:07:51;11.18;;;8.52;;
6113;SDS011;3087;48.392;10.836;2022-07-23T02:10:17;9.98;;;8.05;;
6113;SDS011;3087;48.392;10.836;2022-07-23T02:12:43;9.77;;;7.50;;
6113;SDS011;3087;48.392;10.836;2022-07-23T02:15:08;11.50;;;8.30;;
6113;SDS011;3087;48.392;10.836;2022-07-23T02:17:34;11.23;;;8.07;;
6113;SDS011;3087;48.392;10.836;2022-07-23T02:20:00;10.98;;;9.48;;
6113;SDS011;3087;48.392;10.836;2022-07-23T02:22:26;11.32;;;9.98;;
6113;SDS011;3087;48.392;10.836;2022-07-23T02:24:52;11.95;;;8.82;;
6113;SDS011;3087;48.392;10.836;2022-07-23T02:27:17;11.15;;;8.63;;
6113;SDS011;3087;48.392;10.836;2022-07-23T02:29:43;10.77;;;8.55;;
6113;SDS011;3087;48.392;10.836;2022-07-23T02:32:09;11.85;;;9.07;;
6113;SDS011;3087;48.392;10.836;2022-07-23T02:34:34;11.18;;;8.55;;
6113;SDS011;3087;48.392;10.836;2022-07-23T02:37:00;13.35;;;9.18;;
6113;SDS011;3087;48.392;10.836;2022-07-23T02:39:25;10.35;;;8.43;;
6113;SDS011;3087;48.392;10.836;2022-07-23T02:41:52;12.45;;;9.05;;
6113;SDS011;3087;48.392;10.836;2022-07-23T02:44:17;13.05;;;8.52;;
6113;SDS011;3087;48.392;10.836;2022-07-23T02:46:43;10.65;;;9.02;;
6113;SDS011;3087;48.392;10.836;2022-07-23T02:49:08;13.25;;;9.27;;
6113;SDS011;3087;48.392;10.836;2022-07-23T02:51:34;12.20;;;9.95;;
6113;SDS011;3087;48.392;10.836;2022-07-23T02:54:00;13.65;;;9.63;;
6113;SDS011;3087;48.392;10.836;2022-07-23T02:56:25;14.70;;;9.23;;
6113;SDS011;3087;48.392;10.836;2022-07-23T02:58:51;11.48;;;8.70;;
6113;SDS011;3087;48.392;10.836;2022-07-23T03:01:17;9.82;;;8.82;;
6113;SDS011;3087;48.392;10.836;2022-07-23T03:03:42;12.27;;;8.80;;
6113;SDS011;3087;48.392;10.836;2022-07-23T03:06:08;14.88;;;9.45;;
6113;SDS011;3087;48.392;10.836;2022-07-23T03:08:33;11.15;;;8.60;;
6113;SDS011;3087;48.392;10.836;2022-07-23T03:10:59;11.15;;;9.77;;
6113;SDS011;3087;48.392;10.836;2022-07-23T03:13:25;12.07;;;8.40;;
6113;SDS011;3087;48.392;10.836;2022-07-23T03:15:51;10.10;;;8.30;;
6113;SDS011;3087;48.392;10.836;2022-07-23T03:18:16;11.57;;;8.63;;
6113;SDS011;3087;48.392;10.836;2022-07-23T03:20:42;12.63;;;9.50;;
6113;SDS011;3087;48.392;10.836;2022-07-23T03:23:07;12.45;;;9.35;;
6113;SDS011;3087;48.392;10.836;2022-07-23T03:25:33;11.45;;;9.20;;
6113;SDS011;3087;48.392;10.836;2022-07-23T03:27:59;11.73;;;9.23;;
6113;SDS011;3087;48.392;10.836;2022-07-23T03:30:24;10.23;;;8.38;;
6113;SDS011;3087;48.392;10.836;2022-07-23T03:32:50;11.80;;;8.50;;
6113;SDS011;3087;48.392;10.836;2022-07-23T03:35:15;9.35;;;8.18;;
6113;SDS011;3087;48.392;10.836;2022-07-23T03:37:41;8.50;;;7.60;;
6113;SDS011;3087;48.392;10.836;2022-07-23T03:40:07;12.98;;;8.52;;
6113;SDS011;3087;48.392;10.836;2022-07-23T03:42:33;10.95;;;8.02;;
6113;SDS011;3087;48.392;10.836;2022-07-23T03:44:59;11.77;;;8.40;;
6113;SDS011;3087;48.392;10.836;2022-07-23T03:47:25;8.95;;;8.02;;
6113;SDS011;3087;48.392;10.836;2022-07-23T03:49:51;9.07;;;7.60;;
6113;SDS011;3087;48.392;10.836;2022-07-23T03:52:16;14.38;;;8.57;;
6113;SDS011;3087;48.392;10.836;2022-07-23T03:54:42;8.00;;;7.03;;
6113;SDS011;3087;48.392;10.836;2022-07-23T03:57:08;11.55;;;7.45;;
6113;SDS011;3087;48.392;10.836;2022-07-23T03:59:33;7.55;;;6.78;;
6113;SDS011;3087;48.392;10.836;2022-07-23T04:01:59;15.75;;;8.18;;
6113;SDS011;3087;48.392;10.836;2022-07-23T04:04:24;10.25;;;7.68;;
6113;SDS011;3087;48.392;10.836;2022-07-23T04:06:50;11.13;;;7.22;;
6113;SDS011;3087;48.392;10.836;2022-07-23T04:09:15;9.73;;;7.32;;
6113;SDS011;3087;48.392;10.836;2022-07-23T04:11:41;10.63;;;7.20;;
6113;SDS011;3087;48.392;10.836;2022-07-23T04:14:07;9.25;;;7.20;;
6113;SDS011;3087;48.392;10.836;2022-07-23T04:16:33;11.45;;;6.47;;
6113;SDS011;3087;48.392;10.836;2022-07-23T04:18:59;7.47;;;6.50;;
6113;SDS011;3087;48.392;10.836;2022-07-23T04:21:25;7.80;;;6.68;;
6113;SDS011;3087;48.392;10.836;2022-07-23T04:23:50;9.60;;;6.68;;
6113;SDS011;3087;48.392;10.836;2022-07-23T04:26:16;9.07;;;6.72;;
6113;SDS011;3087;48.392;10.836;2022-07-23T04:28:42;8.82;;;6.18;;
6113;SDS011;3087;48.392;10.836;2022-07-23T04:31:07;8.45;;;6.70;;
6113;SDS011;3087;48.392;10.836;2022-07-23T04:33:33;7.00;;;5.88;;
6113;SDS011;3087;48.392;10.836;2022-07-23T04:35:59;7.93;;;6.30;;
6113;SDS011;3087;48.392;10.836;2022-07-23T04:38:24;8.00;;;5.85;;
6113;SDS011;3087;48.392;10.836;2022-07-23T04:40:50;7.75;;;5.55;;
6113;SDS011;3087;48.392;10.836;2022-07-23T04:43:16;8.23;;;6.50;;
6113;SDS011;3087;48.392;10.836;2022-07-23T04:45:41;8.40;;;5.82;;
6113;SDS011;3087;48.392;10.836;2022-07-23T04:48:07;9.20;;;6.57;;
6113;SDS011;3087;48.392;10.836;2022-07-23T04:50:32;7.95;;;6.35;;
6113;SDS011;3087;48.392;10.836;2022-07-23T04:52:58;8.30;;;7.03;;
6113;SDS011;3087;48.392;10.836;2022-07-23T04:55:24;7.70;;;6.07;;
6113;SDS011;3087;48.392;10.836;2022-07-23T04:57:49;7.18;;;6.47;;
6113;SDS011;3087;48.392;10.836;2022-07-23T05:00:15;8.38;;;6.85;;
6113;SDS011;3087;48.392;10.836;2022-07-23T05:02:41;8.40;;;6.45;;
6113;SDS011;3087;48.392;10.836;2022-07-23T05:05:07;9.93;;;6.20;;
6113;SDS011;3087;48.392;10.836;2022-07-23T05:07:32;8.73;;;6.28;;
6113;SDS011;3087;48.392;10.836;2022-07-23T05:09:58;7.10;;;6.47;;
6113;SDS011;3087;48.392;10.836;2022-07-23T05:12:24;7.30;;;6.53;;
6113;SDS011;3087;48.392;10.836;2022-07-23T05:14:49;8.15;;;7.30;;
6113;SDS011;3087;48.392;10.836;2022-07-23T05:17:15;9.40;;;6.82;;
6113;SDS011;3087;48.392;10.836;2022-07-23T05:19:40;7.30;;;6.10;;
6113;SDS011;3087;48.392;10.836;2022-07-23T05:22:06;8.10;;;6.43;;
6113;SDS011;3087;48.392;10.836;2022-07-23T05:24:32;6.60;;;6.00;;
6113;SDS011;3087;48.392;10.836;2022-07-23T05:26:57;9.45;;;6.32;;
6113;SDS011;3087;48.392;10.836;2022-07-23T05:29:23;6.40;;;5.78;;
6113;SDS011;3087;48.392;10.836;2022-07-23T05:31:48;7.45;;;6.20;;
6113;SDS011;3087;48.392;10.836;2022-07-23T05:34:14;8.93;;;6.22;;
6113;SDS011;3087;48.392;10.836;2022-07-23T05:36:40;8.30;;;6.80;;
6113;SDS011;3087;48.392;10.836;2022-07-23T05:39:06;7.15;;;6.28;;
6113;SDS011;3087;48.392;10.836;2022-07-23T05:41:32;7.60;;;6.85;;
6113;SDS011;3087;48.392;10.836;2022-07-23T05:43:57;9.35;;;6.72;;
6113;SDS011;3087;48.392;10.836;2022-07-23T05:46:23;8.30;;;6.47;;
6113;SDS011;3087;48.392;10.836;2022-07-23T05:48:49;7.78;;;6.30;;
6113;SDS011;3087;48.392;10.836;2022-07-23T05:51:21;9.70;;;6.25;;
6113;SDS011;3087;48.392;10.836;2022-07-23T05:53:47;7.20;;;6.47;;
6113;SDS011;3087;48.392;10.836;2022-07-23T05:56:13;8.30;;;5.72;;
6113;SDS011;3087;48.392;10.836;2022-07-23T05:58:39;7.03;;;6.20;;
6113;SDS011;3087;48.392;10.836;2022-07-23T06:01:05;7.55;;;5.88;;
6113;SDS011;3087;48.392;10.836;2022-07-23T06:03:30;6.43;;;5.50;;
6113;SDS011;3087;48.392;10.836;2022-07-23T06:05:56;7.40;;;6.07;;
6113;SDS011;3087;48.392;10.836;2022-07-23T06:08:21;6.72;;;6.13;;
6113;SDS011;3087;48.392;10.836;2022-07-23T06:10:47;9.23;;;6.10;;
6113;SDS011;3087;48.392;10.836;2022-07-23T06:13:13;7.95;;;7.15;;
6113;SDS011;3087;48.392;10.836;2022-07-23T06:15:39;9.02;;;7.07;;
6113;SDS011;3087;48.392;10.836;2022-07-23T06:18:05;10.57;;;7.13;;
6113;SDS011;3087;48.392;10.836;2022-07-23T06:20:30;9.75;;;6.88;;
6113;SDS011;3087;48.392;10.836;2022-07-23T06:22:56;6.15;;;5.55;;
6113;SDS011;3087;48.392;10.836;2022-07-23T06:25:22;8.68;;;6.40;;
6113;SDS011;3087;48.392;10.836;2022-07-23T06:27:48;7.00;;;6.30;;
6113;SDS011;3087;48.392;10.836;2022-07-23T06:30:14;7.50;;;6.30;;
6113;SDS011;3087;48.392;10.836;2022-07-23T06:32:43;6.90;;;6.22;;
6113;SDS011;3087;48.392;10.836;2022-07-23T06:35:10;6.72;;;6.07;;
6113;SDS011;3087;48.392;10.836;2022-07-23T06:37:35;6.32;;;5.72;;
6113;SDS011;3087;48.392;10.836;2022-07-23T06:40:02;8.93;;;8.13;;
6113;SDS011;3087;48.392;10.836;2022-07-23T06:42:28;7.20;;;6.50;;
6113;SDS011;3087;48.392;10.836;2022-07-23T06:44:53;7.13;;;5.80;;
6113;SDS011;3087;48.392;10.836;2022-07-23T06:47:19;8.40;;;6.88;;
6113;SDS011;3087;48.392;10.836;2022-07-23T06:49:44;8.48;;;7.00;;
6113;SDS011;3087;48.392;10.836;2022-07-23T06:52:10;9.75;;;7.65;;
6113;SDS011;3087;48.392;10.836;2022-07-23T06:54:36;7.50;;;6.82;;
6113;SDS011;3087;48.392;10.836;2022-07-23T06:57:02;7.20;;;6.35;;
6113;SDS011;3087;48.392;10.836;2022-07-23T06:59:27;8.45;;;6.53;;
6113;SDS011;3087;48.392;10.836;2022-07-23T07:01:53;6.95;;;6.35;;
6113;SDS011;3087;48.392;10.836;2022-07-23T07:04:19;7.50;;;6.70;;
6113;SDS011;3087;48.392;10.836;2022-07-23T07:06:44;7.55;;;6.85;;
6113;SDS011;3087;48.392;10.836;2022-07-23T07:09:10;8.18;;;7.13;;
6113;SDS011;3087;48.392;10.836;2022-07-23T07:11:35;9.65;;;8.65;;
6113;SDS011;3087;48.392;10.836;2022-07-23T07:14:01;7.93;;;7.13;;
6113;SDS011;3087;48.392;10.836;2022-07-23T07:16:27;8.23;;;7.43;;
6113;SDS011;3087;48.392;10.836;2022-07-23T07:18:52;9.60;;;6.63;;
6113;SDS011;3087;48.392;10.836;2022-07-23T07:21:18;8.13;;;6.78;;
6113;SDS011;3087;48.392;10.836;2022-07-23T07:23:43;7.75;;;6.18;;
6113;SDS011;3087;48.392;10.836;2022-07-23T07:26:09;9.60;;;6.95;;
6113;SDS011;3087;48.392;10.836;2022-07-23T07:28:35;9.75;;;7.38;;
6113;SDS011;3087;48.392;10.836;2022-07-23T07:31:00;6.80;;;6.13;;
6113;SDS011;3087;48.392;10.836;2022-07-23T07:33:26;7.97;;;6.63;;
6113;SDS011;3087;48.392;10.836;2022-07-23T07:35:52;8.18;;;7.00;;
6113;SDS011;3087;48.392;10.836;2022-07-23T07:38:17;6.80;;;5.97;;
6113;SDS011;3087;48.392;10.836;2022-07-23T07:40:44;6.32;;;5.63;;
6113;SDS011;3087;48.392;10.836;2022-07-23T07:43:09;6.78;;;6.18;;
6113;SDS011;3087;48.392;10.836;2022-07-23T07:45:35;7.80;;;7.00;;
6113;SDS011;3087;48.392;10.836;2022-07-23T07:48:00;7.25;;;6.55;;
6113;SDS011;3087;48.392;10.836;2022-07-23T07:50:26;7.82;;;7.00;;
6113;SDS011;3087;48.392;10.836;2022-07-23T07:52:52;10.73;;;8.90;;
6113;SDS011;3087;48.392;10.836;2022-07-23T07:55:18;7.65;;;6.85;;
6113;SDS011;3087;48.392;10.836;2022-07-23T07:57:44;7.50;;;6.90;;
6113;SDS011;3087;48.392;10.836;2022-07-23T08:00:09;8.15;;;7.15;;
6113;SDS011;3087;48.392;10.836;2022-07-23T08:02:40;6.90;;;6.22;;
6113;SDS011;3087;48.392;10.836;2022-07-23T08:05:05;7.20;;;6.50;;
6113;SDS011;3087;48.392;10.836;2022-07-23T08:07:31;7.35;;;6.65;;
6113;SDS011;3087;48.392;10.836;2022-07-23T08:09:57;9.90;;;7.40;;
6113;SDS011;3087;48.392;10.836;2022-07-23T08:12:22;7.78;;;6.65;;
6113;SDS011;3087;48.392;10.836;2022-07-23T08:14:48;7.82;;;6.18;;
6113;SDS011;3087;48.392;10.836;2022-07-23T08:17:14;7.65;;;6.47;;
6113;SDS011;3087;48.392;10.836;2022-07-23T08:19:39;7.22;;;6.30;;
6113;SDS011;3087;48.392;10.836;2022-07-23T08:22:05;7.25;;;6.53;;
6113;SDS011;3087;48.392;10.836;2022-07-23T08:24:31;7.30;;;6.60;;
6113;SDS011;3087;48.392;10.836;2022-07-23T08:26:56;6.97;;;6.28;;
6113;SDS011;3087;48.392;10.836;2022-07-23T08:29:22;7.78;;;6.65;;
6113;SDS011;3087;48.392;10.836;2022-07-23T08:31:47;7.18;;;6.45;;
6113;SDS011;3087;48.392;10.836;2022-07-23T08:34:13;6.93;;;6.22;;
6113;SDS011;3087;48.392;10.836;2022-07-23T08:36:38;6.82;;;6.20;;
6113;SDS011;3087;48.392;10.836;2022-07-23T08:39:04;6.93;;;5.95;;
6113;SDS011;3087;48.392;10.836;2022-07-23T08:41:30;7.28;;;6.57;;
6113;SDS011;3087;48.392;10.836;2022-07-23T08:43:55;7.20;;;6.50;;
6113;SDS011;3087;48.392;10.836;2022-07-23T08:46:21;6.65;;;6.05;;
6113;SDS011;3087;48.392;10.836;2022-07-23T08:48:48;7.38;;;6.57;;
6113;SDS011;3087;48.392;10.836;2022-07-23T08:51:15;7.35;;;6.65;;
6113;SDS011;3087;48.392;10.836;2022-07-23T08:53:41;7.30;;;6.60;;
6113;SDS011;3087;48.392;10.836;2022-07-23T08:56:09;7.03;;;6.32;;
6113;SDS011;3087;48.392;10.836;2022-07-23T08:58:34;6.53;;;5.90;;
6113;SDS011;3087;48.392;10.836;2022-07-23T09:01:00;7.72;;;6.40;;
6113;SDS011;3087;48.392;10.836;2022-07-23T09:03:30;6.57;;;5.60;;
6113;SDS011;3087;48.392;10.836;2022-07-23T09:05:58;7.13;;;6.53;;
6113;SDS011;3087;48.392;10.836;2022-07-23T09:08:39;7.13;;;6.45;;
6113;SDS011;3087;48.392;10.836;2022-07-23T09:11:06;6.63;;;6.03;;
6113;SDS011;3087;48.392;10.836;2022-07-23T09:16:14;6.93;;;6.13;;
6113;SDS011;3087;48.392;10.836;2022-07-23T09:18:59;8.00;;;5.78;;
6113;SDS011;3087;48.392;10.836;2022-07-23T09:21:27;6.97;;;6.32;;
6113;SDS011;3087;48.392;10.836;2022-07-23T09:23:59;8.25;;;6.90;;
6113;SDS011;3087;48.392;10.836;2022-07-23T09:32:05;7.43;;;6.43;;
6113;SDS011;3087;48.392;10.836;2022-07-23T09:34:33;6.30;;;5.70;;
6113;SDS011;3087;48.392;10.836;2022-07-23T09:37:10;6.82;;;6.13;;
6113;SDS011;3087;48.392;10.836;2022-07-23T09:39:38;7.00;;;6.30;;
6113;SDS011;3087;48.392;10.836;2022-07-23T09:42:14;8.57;;;6.38;;
6113;SDS011;3087;48.392;10.836;2022-07-23T09:44:44;6.32;;;5.82;;
6113;SDS011;3087;48.392;10.836;2022-07-23T09:47:14;7.72;;;6.28;;
6113;SDS011;3087;48.392;10.836;2022-07-23T09:49:40;8.77;;;6.15;;
6113;SDS011;3087;48.392;10.836;2022-07-23T09:52:30;6.25;;;5.75;;
6113;SDS011;3087;48.392;10.836;2022-07-23T09:55:01;7.18;;;6.55;;
6113;SDS011;3087;48.392;10.836;2022-07-23T09:57:29;7.13;;;6.15;;
6113;SDS011;3087;48.392;10.836;2022-07-23T10:00:00;7.80;;;7.05;;
6113;SDS011;3087;48.392;10.836;2022-07-23T10:02:31;7.00;;;6.40;;
6113;SDS011;3087;48.392;10.836;2022-07-23T10:04:58;7.82;;;7.13;;
6113;SDS011;3087;48.392;10.836;2022-07-23T10:07:26;8.40;;;6.53;;
6113;SDS011;3087;48.392;10.836;2022-07-23T10:09:54;9.35;;;6.97;;
6113;SDS011;3087;48.392;10.836;2022-07-23T10:12:21;7.05;;;6.35;;
6113;SDS011;3087;48.392;10.836;2022-07-23T10:14:54;7.30;;;6.60;;
6113;SDS011;3087;48.392;10.836;2022-07-23T10:17:21;8.05;;;6.88;;
6113;SDS011;3087;48.392;10.836;2022-07-23T10:19:47;6.95;;;6.03;;
6113;SDS011;3087;48.392;10.836;2022-07-23T10:22:17;7.45;;;6.75;;
6113;SDS011;3087;48.392;10.836;2022-07-23T10:27:34;8.45;;;7.35;;
6113;SDS011;3087;48.392;10.836;2022-07-23T10:30:26;9.73;;;7.13;;
6113;SDS011;3087;48.392;10.836;2022-07-23T10:32:56;7.85;;;6.80;;
6113;SDS011;3087;48.392;10.836;2022-07-23T10:35:49;7.10;;;6.50;;
6113;SDS011;3087;48.392;10.836;2022-07-23T10:38:43;8.00;;;7.30;;
6113;SDS011;3087;48.392;10.836;2022-07-23T10:41:38;7.13;;;6.43;;
6113;SDS011;3087;48.392;10.836;2022-07-23T10:44:09;7.32;;;6.63;;
6113;SDS011;3087;48.392;10.836;2022-07-23T10:46:36;6.80;;;6.05;;
6113;SDS011;3087;48.392;10.836;2022-07-23T10:49:35;7.22;;;6.20;;
6113;SDS011;3087;48.392;10.836;2022-07-23T10:57:27;6.80;;;6.22;;
6113;SDS011;3087;48.392;10.836;2022-07-23T11:02:38;6.25;;;5.75;;
6113;SDS011;3087;48.392;10.836;2022-07-23T11:07:31;7.47;;;6.82;;
6113;SDS011;3087;48.392;10.836;2022-07-23T11:09:58;7.22;;;6.63;;
6113;SDS011;3087;48.392;10.836;2022-07-23T11:18:17;8.15;;;6.50;;
6113;SDS011;3087;48.392;10.836;2022-07-23T11:20:20;7.28;;;6.53;;
6113;SDS011;3087;48.392;10.836;2022-07-23T11:22:48;6.90;;;6.30;;
6113;SDS011;3087;48.392;10.836;2022-07-23T11:27:53;6.95;;;6.32;;
6113;SDS011;3087;48.392;10.836;2022-07-23T11:32:54;7.47;;;6.78;;
6113;SDS011;3087;48.392;10.836;2022-07-23T11:35:43;7.32;;;6.22;;
6113;SDS011;3087;48.392;10.836;2022-07-23T11:38:17;6.93;;;6.22;;
6113;SDS011;3087;48.392;10.836;2022-07-23T11:40:50;7.95;;;6.57;;
6113;SDS011;3087;48.392;10.836;2022-07-23T11:43:19;7.05;;;6.35;;
6113;SDS011;3087;48.392;10.836;2022-07-23T11:45:51;6.82;;;6.13;;
6113;SDS011;3087;48.392;10.836;2022-07-23T11:48:23;7.38;;;6.60;;
6113;SDS011;3087;48.392;10.836;2022-07-23T11:50:49;7.35;;;6.65;;
6113;SDS011;3087;48.392;10.836;2022-07-23T11:53:26;6.72;;;6.13;;
6113;SDS011;3087;48.392;10.836;2022-07-23T11:56:05;7.50;;;6.63;;
6113;SDS011;3087;48.392;10.836;2022-07-23T11:58:32;6.57;;;6.00;;
6113;SDS011;3087;48.392;10.836;2022-07-23T12:00:58;7.20;;;6.57;;
6113;SDS011;3087;48.392;10.836;2022-07-23T12:03:23;7.00;;;6.38;;
6113;SDS011;3087;48.392;10.836;2022-07-23T12:05:49;6.82;;;6.22;;
6113;SDS011;3087;48.392;10.836;2022-07-23T12:08:22;7.20;;;6.50;;
6113;SDS011;3087;48.392;10.836;2022-07-23T12:10:48;7.57;;;6.50;;
6113;SDS011;3087;48.392;10.836;2022-07-23T12:13:15;7.00;;;6.30;;
6113;SDS011;3087;48.392;10.836;2022-07-23T12:15:47;7.57;;;6.85;;
6113;SDS011;3087;48.392;10.836;2022-07-23T12:18:16;7.70;;;6.18;;
6113;SDS011;3087;48.392;10.836;2022-07-23T12:20:46;7.75;;;6.57;;
6113;SDS011;3087;48.392;10.836;2022-07-23T12:23:15;8.25;;;7.10;;
6113;SDS011;3087;48.392;10.836;2022-07-23T12:25:43;7.18;;;6.50;;
6113;SDS011;3087;48.392;10.836;2022-07-23T12:28:11;7.28;;;6.57;;
6113;SDS011;3087;48.392;10.836;2022-07-23T12:30:48;7.70;;;7.00;;
6113;SDS011;3087;48.392;10.836;2022-07-23T12:33:32;7.90;;;7.18;;
6113;SDS011;3087;48.392;10.836;2022-07-23T12:36:00;8.23;;;7.45;;
6113;SDS011;3087;48.392;10.836;2022-07-23T12:38:36;7.82;;;7.00;;
6113;SDS011;3087;48.392;10.836;2022-07-23T12:41:03;7.93;;;7.13;;
6113;SDS011;3087;48.392;10.836;2022-07-23T12:43:33;8.23;;;7.43;;
6113;SDS011;3087;48.392;10.836;2022-07-23T12:46:15;9.50;;;7.85;;
6113;SDS011;3087;48.392;10.836;2022-07-23T12:53:43;8.00;;;6.63;;
6113;SDS011;3087;48.392;10.836;2022-07-23T12:56:18;8.20;;;7.40;;
6113;SDS011;3087;48.392;10.836;2022-07-23T12:58:52;9.52;;;7.22;;
6113;SDS011;3087;48.392;10.836;2022-07-23T13:01:23;9.32;;;7.82;;
6113;SDS011;3087;48.392;10.836;2022-07-23T13:06:36;8.20;;;7.28;;
6113;SDS011;3087;48.392;10.836;2022-07-23T13:09:08;8.05;;;7.30;;
6113;SDS011;3087;48.392;10.836;2022-07-23T13:11:38;9.63;;;8.63;;
6113;SDS011;3087;48.392;10.836;2022-07-23T13:14:04;8.00;;;7.25;;
6113;SDS011;3087;48.392;10.836;2022-07-23T13:16:31;8.57;;;7.78;;
6113;SDS011;3087;48.392;10.836;2022-07-23T13:18:58;9.40;;;8.52;;
6113;SDS011;3087;48.392;10.836;2022-07-23T13:21:25;11.02;;;8.07;;
6113;SDS011;3087;48.392;10.836;2022-07-23T13:23:52;9.13;;;8.02;;
6113;SDS011;3087;48.392;10.836;2022-07-23T13:26:17;15.30;;;8.30;;
6113;SDS011;3087;48.392;10.836;2022-07-23T13:28:43;11.38;;;7.55;;
6113;SDS011;3087;48.392;10.836;2022-07-23T13:31:09;12.38;;;8.00;;
6113;SDS011;3087;48.392;10.836;2022-07-23T13:33:35;9.07;;;7.55;;
6113;SDS011;3087;48.392;10.836;2022-07-23T13:36:02;8.57;;;7.75;;
6113;SDS011;3087;48.392;10.836;2022-07-23T13:38:28;9.02;;;8.15;;
6113;SDS011;3087;48.392;10.836;2022-07-23T13:40:54;9.45;;;7.60;;
6113;SDS011;3087;48.392;10.836;2022-07-23T13:43:22;8.65;;;7.82;;
6113;SDS011;3087;48.392;10.836;2022-07-23T13:45:49;8.85;;;7.82;;
6113;SDS011;3087;48.392;10.836;2022-07-23T13:48:16;8.93;;;7.85;;
6113;SDS011;3087;48.392;10.836;2022-07-23T13:50:44;8.38;;;7.57;;
6113;SDS011;3087;48.392;10.836;2022-07-23T13:53:15;8.82;;;8.02;;
6113;SDS011;3087;48.392;10.836;2022-07-23T13:55:46;8.77;;;7.90;;
6113;SDS011;3087;48.392;10.836;2022-07-23T13:58:13;8.95;;;8.00;;
6113;SDS011;3087;48.392;10.836;2022-07-23T14:00:39;8.98;;;8.02;;
6113;SDS011;3087;48.392;10.836;2022-07-23T14:03:07;9.27;;;7.55;;
6113;SDS011;3087;48.392;10.836;2022-07-23T14:05:33;8.55;;;7.30;;
6113;SDS011;3087;48.392;10.836;2022-07-23T14:07:59;8.65;;;7.75;;
6113;SDS011;3087;48.392;10.836;2022-07-23T14:10:25;8.73;;;7.82;;
6113;SDS011;3087;48.392;10.836;2022-07-23T14:12:51;8.07;;;7.30;;
6113;SDS011;3087;48.392;10.836;2022-07-23T14:15:24;8.98;;;8.07;;
6113;SDS011;3087;48.392;10.836;2022-07-23T14:17:52;8.25;;;6.60;;
6113;SDS011;3087;48.392;10.836;2022-07-23T14:20:18;8.05;;;7.28;;
6113;SDS011;3087;48.392;10.836;2022-07-23T14:22:44;8.20;;;7.40;;
6113;SDS011;3087;48.392;10.836;2022-07-23T14:25:10;7.70;;;6.88;;
6113;SDS011;3087;48.392;10.836;2022-07-23T14:27:36;8.68;;;6.78;;
6113;SDS011;3087;48.392;10.836;2022-07-23T14:30:03;7.40;;;6.35;;
6113;SDS011;3087;48.392;10.836;2022-07-23T14:32:33;6.07;;;5.53;;
6113;SDS011;3087;48.392;10.836;2022-07-23T14:34:59;6.70;;;5.50;;
6113;SDS011;3087;48.392;10.836;2022-07-23T14:37:25;6.00;;;5.47;;
6113;SDS011;3087;48.392;10.836;2022-07-23T14:39:51;6.60;;;5.90;;
6113;SDS011;3087;48.392;10.836;2022-07-23T14:42:17;6.45;;;5.82;;
6113;SDS011;3087;48.392;10.836;2022-07-23T14:44:43;7.93;;;5.60;;
6113;SDS011;3087;48.392;10.836;2022-07-23T14:47:09;6.90;;;5.75;;
6113;SDS011;3087;48.392;10.836;2022-07-23T14:49:34;6.53;;;5.93;;
6113;SDS011;3087;48.392;10.836;2022-07-23T14:52:01;7.07;;;6.38;;
6113;SDS011;3087;48.392;10.836;2022-07-23T14:54:28;6.82;;;6.00;;
6113;SDS011;3087;48.392;10.836;2022-07-23T14:56:54;5.60;;;5.10;;
6113;SDS011;3087;48.392;10.836;2022-07-23T14:59:21;6.88;;;6.20;;
6113;SDS011;3087;48.392;10.836;2022-07-23T15:01:48;8.25;;;6.57;;
6113;SDS011;3087;48.392;10.836;2022-07-23T15:04:14;8.02;;;6.75;;
6113;SDS011;3087;48.392;10.836;2022-07-23T15:06:40;7.00;;;6.28;;
6113;SDS011;3087;48.392;10.836;2022-07-23T15:09:05;7.18;;;6.57;;
6113;SDS011;3087;48.392;10.836;2022-07-23T15:11:31;7.05;;;6.22;;
6113;SDS011;3087;48.392;10.836;2022-07-23T15:14:00;6.90;;;6.05;;
6113;SDS011;3087;48.392;10.836;2022-07-23T15:16:26;8.93;;;6.60;;
6113;SDS011;3087;48.392;10.836;2022-07-23T15:18:52;7.15;;;6.53;;
6113;SDS011;3087;48.392;10.836;2022-07-23T15:21:18;7.72;;;7.03;;
6113;SDS011;3087;48.392;10.836;2022-07-23T15:23:43;7.88;;;7.10;;
6113;SDS011;3087;48.392;10.836;2022-07-23T15:26:09;7.43;;;6.75;;
6113;SDS011;3087;48.392;10.836;2022-07-23T15:28:35;7.50;;;6.63;;
6113;SDS011;3087;48.392;10.836;2022-07-23T15:31:01;7.90;;;7.05;;
6113;SDS011;3087;48.392;10.836;2022-07-23T15:33:27;7.15;;;6.20;;
6113;SDS011;3087;48.392;10.836;2022-07-23T15:35:53;7.93;;;7.18;;
6113;SDS011;3087;48.392;10.836;2022-07-23T15:38:21;6.90;;;6.20;;
6113;SDS011;3087;48.392;10.836;2022-07-23T15:40:47;8.00;;;7.20;;